createdAt,value
2022-12-07T00:04:21.710Z,2.22
2022-12-07T00:09:26.553Z,2.28
2022-12-07T00:14:34.189Z,2.25
2022-12-07T00:19:39.174Z,2.30
2022-12-07T00:24:44.074Z,2.27
2022-12-07T00:29:51.690Z,2.18
2022-12-07T00:34:56.637Z,2.24
2022-12-07T00:40:02.129Z,2.17
2022-12-07T00:45:11.610Z,2.15
2022-12-07T00:50:16.493Z,2.29
2022-12-07T00:55:21.521Z,2.42
2022-12-07T01:00:31.176Z,2.36
2022-12-07T01:05:36.147Z,2.28
2022-12-07T01:10:41.080Z,2.26
2022-12-07T01:15:48.921Z,2.17
2022-12-07T01:21:01.736Z,2.14
2022-12-07T01:26:08.682Z,2.17
2022-12-07T01:31:18.324Z,2.26
2022-12-07T01:36:27.080Z,2.27
2022-12-07T01:41:36.364Z,2.36
2022-12-07T01:46:47.532Z,2.51
2022-12-07T01:51:55.749Z,2.33
2022-12-07T01:57:01.733Z,2.33
2022-12-07T02:02:17.884Z,2.40
2022-12-07T02:07:23.827Z,2.41
2022-12-07T02:12:31.210Z,2.38
2022-12-07T02:17:49.682Z,2.40
2022-12-07T02:23:26.059Z,2.33
2022-12-07T02:28:37.516Z,2.47
2022-12-07T02:33:51.283Z,2.33
2022-12-07T02:39:02.002Z,2.25
2022-12-07T02:44:13.878Z,2.25
2022-12-07T02:49:22.558Z,2.31
2022-12-07T02:54:27.635Z,2.29
2022-12-07T02:59:46.455Z,2.31
2022-12-07T03:05:04.506Z,2.09
2022-12-07T03:10:18.106Z,2.10
2022-12-07T03:15:29.957Z,2.11
2022-12-07T03:20:41.042Z,2.10
2022-12-07T03:25:53.600Z,2.15
2022-12-07T03:31:07.333Z,1.80
2022-12-07T03:36:21.113Z,1.93
2022-12-07T03:41:56.828Z,1.86
2022-12-07T03:47:29.940Z,1.90
2022-12-07T03:52:47.573Z,2.00
2022-12-07T03:57:56.336Z,1.89
2022-12-07T04:03:03.993Z,1.80
2022-12-07T04:08:14.236Z,1.68
2022-12-07T04:13:19.285Z,1.79
2022-12-07T04:18:24.330Z,1.89
2022-12-07T04:23:32.057Z,1.77
2022-12-07T04:28:36.969Z,1.79
2022-12-07T04:33:42.229Z,1.75
2022-12-07T04:38:51.120Z,1.74
2022-12-07T04:43:56.856Z,1.80
2022-12-07T04:49:02.203Z,1.51
2022-12-07T04:54:10.023Z,1.70
2022-12-07T04:59:15.523Z,1.78
2022-12-07T05:04:21.387Z,1.63
2022-12-07T05:09:28.867Z,1.61
2022-12-07T05:14:33.999Z,1.54
2022-12-07T05:19:39.080Z,1.68
2022-12-07T05:24:49.557Z,1.48
2022-12-07T05:29:55.412Z,1.55
2022-12-07T05:35:01.508Z,1.64
2022-12-07T05:40:10.321Z,1.78
2022-12-07T05:45:15.250Z,1.65
2022-12-07T05:50:20.371Z,1.73
2022-12-07T05:55:41.440Z,1.89
2022-12-07T06:00:50.867Z,1.90
2022-12-07T06:05:56.810Z,2.05
2022-12-07T06:11:16.590Z,1.91
2022-12-07T06:16:21.574Z,2.26
2022-12-07T06:21:27.588Z,2.28
2022-12-07T06:26:35.291Z,2.07
2022-12-07T06:31:40.882Z,2.23
2022-12-07T06:36:46.104Z,2.16
2022-12-07T06:41:55.535Z,2.10
2022-12-07T06:47:31.798Z,2.13
2022-12-07T06:52:28.633Z,2.22
2022-12-07T06:57:36.392Z,2.21
2022-12-07T07:02:41.335Z,2.13
2022-12-07T07:08:20.064Z,2.29
2022-12-07T07:13:15.803Z,2.16
2022-12-07T07:18:20.846Z,1.96
2022-12-07T07:23:28.295Z,1.88
2022-12-07T07:28:36.092Z,1.80
2022-12-07T07:33:41.022Z,1.79
2022-12-07T07:38:45.949Z,1.82
2022-12-07T07:43:53.966Z,2.00
2022-12-07T07:48:58.866Z,1.72
2022-12-07T07:54:04.017Z,1.94
2022-12-07T07:59:13.885Z,1.96
2022-12-07T08:04:19.021Z,2.07
2022-12-07T08:09:24.071Z,2.18
2022-12-07T08:14:33.497Z,2.07
2022-12-07T08:19:38.480Z,2.08
2022-12-07T08:24:43.672Z,2.22
2022-12-07T08:29:51.152Z,2.32
2022-12-07T08:35:00.236Z,2.43
2022-12-07T08:40:06.191Z,2.54
2022-12-07T08:45:18.794Z,2.47
2022-12-07T08:50:27.516Z,2.61
2022-12-07T08:55:39.882Z,2.55
2022-12-07T09:00:51.610Z,2.56
2022-12-07T09:06:00.718Z,2.72
2022-12-07T09:11:05.971Z,2.84
2022-12-07T09:16:14.292Z,2.91
2022-12-07T09:21:19.242Z,2.82
2022-12-07T09:26:25.492Z,2.89
2022-12-07T09:31:34.312Z,3.12
2022-12-07T09:36:40.238Z,3.11
2022-12-07T09:41:49.244Z,3.11
2022-12-07T09:46:57.794Z,3.28
2022-12-07T09:52:21.835Z,3.31
2022-12-07T09:57:33.148Z,3.57
2022-12-07T10:02:44.001Z,3.54
2022-12-07T10:07:49.087Z,3.84
2022-12-07T10:13:00.452Z,3.86
2022-12-07T10:18:18.288Z,3.86
2022-12-07T10:23:23.204Z,3.99
2022-12-07T10:28:42.302Z,4.06
2022-12-07T10:33:57.439Z,4.14
2022-12-07T10:39:19.946Z,4.32
2022-12-07T10:44:26.457Z,4.22
2022-12-07T10:49:55.072Z,4.15
2022-12-07T10:55:17.575Z,3.98
2022-12-07T11:00:25.280Z,4.04
2022-12-07T11:05:45.423Z,4.02
2022-12-07T11:11:07.733Z,3.98
2022-12-07T11:16:25.305Z,3.94
2022-12-07T11:21:40.353Z,3.83
2022-12-07T11:27:03.211Z,3.82
2022-12-07T11:32:16.932Z,3.96
2022-12-07T11:37:36.532Z,3.97
2022-12-07T11:42:49.685Z,4.03
2022-12-07T11:48:02.655Z,4.16
2022-12-07T11:53:20.103Z,4.07
2022-12-07T11:58:48.566Z,3.49
2022-12-07T12:03:56.646Z,3.48
2022-12-07T12:09:41.771Z,3.61
2022-12-07T12:14:50.711Z,3.53
2022-12-07T12:20:09.532Z,3.59
2022-12-07T12:25:27.813Z,3.58
2022-12-07T12:31:08.236Z,3.74
2022-12-07T12:36:36.431Z,3.66
2022-12-07T12:42:25.511Z,3.73
2022-12-07T12:48:01.619Z,3.95
2022-12-07T12:53:37.665Z,4.02
2022-12-07T12:58:48.474Z,4.11
2022-12-07T13:04:09.539Z,3.85
2022-12-07T13:09:27.398Z,4.10
2022-12-07T13:15:21.554Z,3.82
2022-12-07T13:20:58.658Z,3.83
2022-12-07T13:26:46.143Z,4.05
2022-12-07T13:31:53.458Z,3.92
2022-12-07T13:37:05.292Z,3.31
2022-12-07T13:42:24.951Z,2.94
2022-12-07T13:47:38.999Z,3.13
2022-12-07T13:52:49.961Z,2.94
2022-12-07T13:58:06.123Z,2.91
2022-12-07T14:03:32.097Z,3.13
2022-12-07T14:08:40.976Z,3.29
2022-12-07T14:14:04.900Z,3.31
2022-12-07T14:19:48.735Z,3.33
2022-12-07T14:25:03.154Z,3.22
2022-12-07T14:30:10.651Z,3.47
2022-12-07T14:35:17.406Z,3.66
2022-12-07T14:40:27.540Z,3.53
2022-12-07T14:45:33.271Z,3.67
2022-12-07T14:56:12.880Z,3.91
2022-12-07T15:01:21.188Z,3.97
2022-12-07T15:06:26.190Z,3.94
2022-12-07T15:11:44.584Z,3.75
2022-12-07T15:17:08.435Z,3.69
2022-12-07T15:22:14.931Z,3.46
2022-12-07T15:27:22.467Z,3.12
2022-12-07T15:32:27.714Z,3.41
2022-12-07T15:37:32.963Z,2.95
2022-12-07T15:42:41.167Z,2.55
2022-12-07T15:48:26.889Z,2.63
2022-12-07T15:53:15.618Z,2.50
2022-12-07T15:58:24.222Z,2.52
2022-12-07T16:03:30.827Z,2.92
2022-12-07T16:08:37.699Z,2.83
2022-12-07T16:13:45.532Z,2.61
2022-12-07T16:18:51.034Z,2.65
2022-12-07T16:24:02.256Z,2.74
2022-12-07T16:29:10.034Z,2.86
2022-12-07T16:34:15.197Z,2.94
2022-12-07T16:39:20.253Z,2.82
2022-12-07T16:44:33.814Z,2.85
2022-12-07T16:49:39.731Z,2.86
2022-12-07T16:54:46.084Z,2.96
2022-12-07T16:59:55.549Z,3.03
2022-12-07T17:05:00.843Z,3.18
2022-12-07T17:10:08.736Z,3.01
2022-12-07T17:15:22.636Z,3.00
2022-12-07T17:20:29.648Z,3.07
2022-12-07T17:25:37.068Z,3.03
2022-12-07T17:30:44.642Z,3.13
2022-12-07T17:35:49.560Z,3.01
2022-12-07T17:40:56.627Z,3.08
2022-12-07T17:46:10.274Z,3.17
2022-12-07T17:51:27.634Z,3.08
2022-12-07T17:56:32.710Z,3.12
2022-12-07T18:01:45.881Z,3.26
2022-12-07T18:06:52.503Z,3.18
2022-12-07T18:11:59.397Z,3.22
2022-12-07T18:17:07.083Z,3.14
2022-12-07T18:22:12.209Z,3.08
2022-12-07T18:27:17.184Z,3.08
2022-12-07T18:32:25.984Z,2.94
2022-12-07T18:37:31.598Z,2.91
2022-12-07T18:42:36.904Z,2.75
2022-12-07T18:47:44.795Z,2.77
2022-12-07T18:52:50.037Z,2.84
2022-12-07T18:57:54.963Z,2.80
2022-12-07T19:03:04.080Z,2.80
2022-12-07T19:08:09.110Z,2.74
2022-12-07T19:13:14.240Z,2.67
2022-12-07T19:18:21.812Z,2.77
2022-12-07T19:23:26.825Z,2.73
2022-12-07T19:28:34.815Z,2.64
2022-12-07T19:33:43.162Z,2.87
2022-12-07T19:38:49.554Z,2.87
2022-12-07T19:43:55.007Z,2.71
2022-12-07T19:49:05.260Z,2.69
2022-12-07T19:54:11.373Z,2.80
2022-12-07T19:59:17.781Z,2.80
2022-12-07T20:04:27.586Z,2.75
2022-12-07T20:09:39.167Z,2.91
2022-12-07T20:14:44.265Z,2.63
2022-12-07T20:19:52.149Z,2.58
2022-12-07T20:24:57.474Z,2.64
2022-12-07T20:30:02.875Z,2.64
2022-12-07T20:35:13.571Z,2.74
2022-12-07T20:40:19.035Z,2.84
2022-12-07T20:45:25.646Z,2.85
2022-12-07T20:50:41.996Z,2.85
2022-12-07T20:55:48.270Z,3.00
2022-12-07T21:00:53.206Z,3.16
2022-12-07T21:06:04.614Z,2.84
2022-12-07T21:11:11.726Z,3.04
2022-12-07T21:16:18.634Z,2.84
2022-12-07T21:21:27.152Z,2.81
2022-12-07T21:26:33.860Z,2.97
2022-12-07T21:31:39.133Z,2.85
2022-12-07T21:36:46.749Z,2.63
2022-12-07T21:41:51.932Z,2.62
2022-12-07T21:46:57.124Z,2.67
2022-12-07T21:52:06.172Z,2.61
2022-12-07T21:57:11.265Z,2.75
2022-12-07T22:02:17.618Z,2.67
2022-12-07T22:07:25.445Z,2.62
2022-12-07T22:12:30.534Z,2.39
2022-12-07T22:17:35.747Z,2.62
2022-12-07T22:22:43.461Z,2.57
2022-12-07T22:27:48.516Z,2.43
2022-12-07T22:32:53.597Z,2.67
2022-12-07T22:38:01.224Z,2.76
2022-12-07T22:43:06.530Z,2.64
2022-12-07T22:48:11.869Z,2.77
2022-12-07T22:53:21.010Z,2.83
2022-12-07T22:58:26.011Z,2.69
2022-12-07T23:03:31.018Z,2.87
2022-12-07T23:08:39.420Z,2.79
2022-12-07T23:13:44.500Z,2.78
2022-12-07T23:18:49.425Z,2.81
2022-12-07T23:23:57.251Z,2.76
2022-12-07T23:29:02.191Z,2.81
2022-12-07T23:34:07.255Z,2.84
2022-12-07T23:39:15.501Z,2.99
2022-12-07T23:44:21.270Z,3.08
2022-12-07T23:49:35.249Z,3.01
2022-12-07T23:54:42.698Z,3.10
2022-12-07T23:59:47.640Z,3.06
